createdAt,value
2022-11-30T00:01:11.737Z,46.59
2022-11-30T00:03:39.035Z,46.60
2022-11-30T00:06:08.548Z,46.41
2022-11-30T00:08:35.828Z,46.18
2022-11-30T00:11:08.369Z,46.53
2022-11-30T00:13:35.490Z,46.44
2022-11-30T00:16:04.126Z,46.25
2022-11-30T00:18:31.299Z,45.55
2022-11-30T00:21:00.630Z,46.20
2022-11-30T00:23:31.270Z,46.32
2022-11-30T00:26:01.487Z,46.14
2022-11-30T00:28:29.076Z,46.37
2022-11-30T00:30:59.849Z,46.38
2022-11-30T00:33:29.547Z,46.46
2022-11-30T00:35:57.587Z,46.90
2022-11-30T00:38:25.128Z,46.74
2022-11-30T00:40:52.209Z,46.61
2022-11-30T00:43:19.327Z,46.59
2022-11-30T00:45:46.780Z,46.91
2022-11-30T00:48:13.942Z,46.23
2022-11-30T00:50:42.448Z,46.62
2022-11-30T00:53:09.569Z,47.13
2022-11-30T00:55:36.688Z,46.79
2022-11-30T00:58:03.767Z,46.96
2022-11-30T01:00:30.850Z,47.15
2022-11-30T01:02:58.386Z,46.83
2022-11-30T01:05:26.467Z,46.25
2022-11-30T01:07:55.213Z,46.75
2022-11-30T01:10:22.387Z,46.98
2022-11-30T01:12:49.767Z,46.81
2022-11-30T01:15:17.055Z,46.52
2022-11-30T01:17:44.211Z,59.56
2022-11-30T01:20:11.768Z,56.69
2022-11-30T01:22:38.947Z,49.65
2022-11-30T01:25:08.647Z,51.19
2022-11-30T01:27:35.692Z,50.86
2022-11-30T01:30:02.947Z,51.24
2022-11-30T01:32:30.026Z,50.62
2022-11-30T01:34:57.106Z,47.93
2022-11-30T01:37:24.207Z,47.96
2022-11-30T01:39:51.326Z,45.83
2022-11-30T01:42:20.546Z,46.42
2022-11-30T01:44:57.211Z,44.48
2022-11-30T01:47:33.150Z,44.84
2022-11-30T01:50:06.386Z,42.70
2022-11-30T01:52:38.700Z,42.44
2022-11-30T01:55:14.924Z,42.95
2022-11-30T01:57:51.461Z,41.30
2022-11-30T02:00:19.982Z,41.49
2022-11-30T02:02:59.975Z,41.54
2022-11-30T02:05:28.353Z,41.29
2022-11-30T02:07:56.070Z,41.18
2022-11-30T02:10:27.714Z,41.25
2022-11-30T02:13:33.981Z,41.33
2022-11-30T02:16:15.889Z,40.96
2022-11-30T02:18:55.652Z,40.84
2022-11-30T02:21:33.172Z,40.79
2022-11-30T02:24:27.892Z,40.70
2022-11-30T02:27:12.256Z,40.84
2022-11-30T02:29:47.756Z,40.77
2022-11-30T02:32:22.856Z,40.49
2022-11-30T02:34:52.294Z,41.13
2022-11-30T02:37:22.724Z,40.22
2022-11-30T02:39:49.735Z,40.58
2022-11-30T02:42:16.798Z,40.25
2022-11-30T02:44:50.106Z,40.06
2022-11-30T02:47:23.894Z,39.34
2022-11-30T02:49:58.056Z,40.03
2022-11-30T02:52:28.697Z,38.72
2022-11-30T02:55:00.277Z,40.03
2022-11-30T02:57:27.353Z,39.99
2022-11-30T02:59:56.395Z,39.85
2022-11-30T03:02:23.574Z,39.59
2022-11-30T03:04:50.714Z,39.17
2022-11-30T03:07:17.844Z,39.29
2022-11-30T03:09:44.995Z,40.06
2022-11-30T03:12:12.213Z,39.72
2022-11-30T03:14:39.275Z,40.07
2022-11-30T03:17:07.835Z,39.88
2022-11-30T03:19:35.073Z,40.00
2022-11-30T03:22:02.241Z,39.96
2022-11-30T03:24:29.414Z,39.43
2022-11-30T03:26:56.474Z,39.60
2022-11-30T03:29:23.473Z,39.38
2022-11-30T03:31:50.554Z,39.47
2022-11-30T03:34:19.334Z,39.89
2022-11-30T03:36:46.514Z,39.52
2022-11-30T03:39:13.535Z,40.09
2022-11-30T03:41:40.574Z,39.72
2022-11-30T03:44:07.675Z,39.88
2022-11-30T03:46:34.776Z,39.64
2022-11-30T03:49:01.835Z,39.71
2022-11-30T03:51:30.334Z,39.80
2022-11-30T03:53:57.554Z,39.44
2022-11-30T03:56:25.398Z,39.48
2022-11-30T03:58:52.475Z,39.52
2022-11-30T04:01:21.837Z,39.64
2022-11-30T04:03:50.195Z,40.13
2022-11-30T04:06:18.790Z,39.14
2022-11-30T04:08:47.550Z,40.11
2022-11-30T04:11:15.231Z,39.95
2022-11-30T04:13:43.410Z,39.79
2022-11-30T04:16:11.169Z,39.58
2022-11-30T04:18:38.725Z,39.21
2022-11-30T04:21:07.671Z,39.35
2022-11-30T04:23:37.534Z,39.38
2022-11-30T04:26:08.310Z,39.50
2022-11-30T04:28:36.391Z,39.43
2022-11-30T04:31:04.114Z,39.75
2022-11-30T04:33:31.636Z,39.86
2022-11-30T04:36:00.972Z,39.27
2022-11-30T04:38:29.033Z,39.85
2022-11-30T04:40:56.095Z,39.84
2022-11-30T04:43:25.831Z,38.86
2022-11-30T04:45:52.894Z,38.91
2022-11-30T04:48:20.414Z,38.59
2022-11-30T04:50:47.573Z,40.97
2022-11-30T04:53:14.734Z,40.26
2022-11-30T04:55:41.774Z,40.31
2022-11-30T04:58:09.034Z,39.89
2022-11-30T05:00:38.315Z,39.97
2022-11-30T05:03:05.373Z,40.35
2022-11-30T05:05:32.455Z,39.18
2022-11-30T05:08:00.594Z,40.08
2022-11-30T05:10:28.813Z,40.47
2022-11-30T05:12:57.451Z,39.78
2022-11-30T05:15:24.494Z,39.44
2022-11-30T05:17:52.921Z,40.11
2022-11-30T05:20:19.960Z,39.52
2022-11-30T05:22:48.641Z,38.91
2022-11-30T05:25:15.844Z,38.68
2022-11-30T05:27:42.945Z,39.23
2022-11-30T05:30:11.566Z,39.74
2022-11-30T05:32:38.615Z,39.18
2022-11-30T05:35:08.409Z,39.02
2022-11-30T05:37:35.657Z,39.57
2022-11-30T05:40:02.753Z,38.92
2022-11-30T05:42:29.855Z,39.52
2022-11-30T05:44:56.950Z,39.63
2022-11-30T05:47:25.191Z,38.82
2022-11-30T05:49:52.213Z,40.31
2022-11-30T05:52:20.692Z,40.04
2022-11-30T05:54:48.186Z,40.51
2022-11-30T05:57:15.492Z,39.68
2022-11-30T05:59:42.612Z,39.30
2022-11-30T06:02:09.768Z,39.38
2022-11-30T06:04:36.815Z,39.32
2022-11-30T06:07:03.921Z,39.31
2022-11-30T06:09:32.518Z,38.81
2022-11-30T06:11:59.619Z,39.58
2022-11-30T06:14:26.661Z,39.28
2022-11-30T06:16:53.876Z,38.71
2022-11-30T06:19:21.115Z,39.82
2022-11-30T06:21:48.212Z,38.66
2022-11-30T06:24:15.312Z,39.13
2022-11-30T06:26:44.248Z,38.52
2022-11-30T06:29:11.432Z,40.02
2022-11-30T06:31:38.601Z,38.98
2022-11-30T06:34:05.713Z,39.71
2022-11-30T06:36:36.299Z,39.52
2022-11-30T06:39:04.368Z,40.18
2022-11-30T06:41:31.410Z,40.52
2022-11-30T06:43:59.848Z,39.65
2022-11-30T06:46:26.944Z,38.99
2022-11-30T06:48:54.094Z,41.11
2022-11-30T06:51:21.215Z,39.94
2022-11-30T06:53:48.292Z,38.71
2022-11-30T06:56:15.402Z,41.04
2022-11-30T06:58:42.834Z,40.36
2022-11-30T07:01:14.461Z,39.55
2022-11-30T07:03:42.601Z,40.01
2022-11-30T07:06:12.038Z,42.04
2022-11-30T07:08:40.660Z,40.06
2022-11-30T07:11:09.712Z,39.56
2022-11-30T07:13:37.172Z,40.39
2022-11-30T07:16:07.189Z,40.83
2022-11-30T07:18:35.873Z,42.07
2022-11-30T07:21:05.135Z,41.87
2022-11-30T07:23:32.654Z,41.80
2022-11-30T07:26:02.214Z,42.74
2022-11-30T07:28:29.512Z,42.89
2022-11-30T07:30:56.629Z,41.96
2022-11-30T07:33:23.822Z,42.61
2022-11-30T07:35:53.183Z,41.84
2022-11-30T07:38:20.643Z,41.29
2022-11-30T07:40:47.682Z,41.56
2022-11-30T07:43:14.851Z,40.65
2022-11-30T07:45:41.966Z,39.86
2022-11-30T07:48:09.012Z,40.45
2022-11-30T07:50:36.111Z,40.92
2022-11-30T07:53:04.711Z,40.88
2022-11-30T07:55:31.912Z,42.08
2022-11-30T07:57:59.226Z,41.67
2022-11-30T08:00:26.507Z,41.25
2022-11-30T08:02:53.572Z,42.05
2022-11-30T08:05:20.691Z,42.71
2022-11-30T08:07:51.446Z,42.59
2022-11-30T08:10:21.182Z,42.69
2022-11-30T08:12:48.424Z,42.01
2022-11-30T08:15:20.791Z,42.08
2022-11-30T08:17:48.638Z,42.84
2022-11-30T08:20:15.877Z,41.30
2022-11-30T08:22:42.854Z,41.94
2022-11-30T08:25:10.215Z,42.76
2022-11-30T08:27:38.770Z,42.03
2022-11-30T08:30:07.631Z,48.24
2022-11-30T08:32:34.808Z,51.49
2022-11-30T08:35:01.897Z,49.17
2022-11-30T08:37:28.964Z,42.30
2022-11-30T08:39:56.495Z,39.94
2022-11-30T08:42:23.640Z,40.33
2022-11-30T08:44:52.069Z,41.13
2022-11-30T08:47:19.241Z,41.07
2022-11-30T08:49:46.423Z,40.98
2022-11-30T08:52:18.177Z,40.81
2022-11-30T08:54:48.105Z,40.90
2022-11-30T08:57:16.859Z,42.12
2022-11-30T08:59:44.778Z,42.63
2022-11-30T09:02:16.284Z,42.29
2022-11-30T09:04:43.688Z,43.85
2022-11-30T09:07:10.767Z,41.83
2022-11-30T09:09:38.140Z,39.91
2022-11-30T09:12:05.905Z,40.54
2022-11-30T09:14:33.030Z,37.94
2022-11-30T09:17:00.164Z,39.19
2022-11-30T09:19:28.745Z,39.12
2022-11-30T09:21:55.852Z,40.76
2022-11-30T09:24:22.928Z,39.12
2022-11-30T09:26:50.103Z,39.29
2022-11-30T09:29:17.126Z,37.80
2022-11-30T09:31:45.540Z,35.61
2022-11-30T09:34:12.928Z,40.64
2022-11-30T09:36:41.433Z,39.04
2022-11-30T09:39:11.013Z,38.86
2022-11-30T09:42:04.809Z,36.88
2022-11-30T09:44:45.935Z,34.88
2022-11-30T09:47:32.314Z,37.30
2022-11-30T09:50:05.236Z,34.29
2022-11-30T09:52:39.289Z,36.12
2022-11-30T09:55:10.388Z,36.07
2022-11-30T09:57:46.372Z,34.28
2022-11-30T10:00:17.406Z,34.88
2022-11-30T10:02:45.694Z,34.38
2022-11-30T10:05:15.524Z,36.07
2022-11-30T10:08:13.165Z,34.42
2022-11-30T10:10:45.565Z,35.83
2022-11-30T10:13:31.707Z,35.28
2022-11-30T10:16:12.744Z,36.63
2022-11-30T10:18:55.029Z,34.96
2022-11-30T10:21:44.966Z,33.58
2022-11-30T10:24:36.205Z,35.07
2022-11-30T10:27:16.645Z,34.08
2022-11-30T10:29:44.346Z,33.06
2022-11-30T10:32:18.689Z,32.51
2022-11-30T10:34:51.953Z,34.48
2022-11-30T10:37:23.131Z,34.72
2022-11-30T10:40:01.583Z,33.61
2022-11-30T10:42:37.474Z,33.72
2022-11-30T10:45:11.566Z,34.66
2022-11-30T10:47:47.045Z,32.97
2022-11-30T10:50:16.825Z,34.27
2022-11-30T10:52:48.626Z,33.52
2022-11-30T10:55:21.525Z,33.20
2022-11-30T10:57:54.321Z,33.86
2022-11-30T11:00:22.394Z,33.76
2022-11-30T11:02:51.255Z,33.41
2022-11-30T11:05:22.435Z,33.73
2022-11-30T11:08:01.191Z,33.55
2022-11-30T11:10:36.632Z,32.38
2022-11-30T11:13:04.588Z,33.91
2022-11-30T11:15:34.196Z,33.02
2022-11-30T11:18:23.921Z,34.28
2022-11-30T11:21:05.962Z,34.52
2022-11-30T11:23:37.688Z,33.97
2022-11-30T11:26:15.840Z,34.53
2022-11-30T11:28:46.858Z,34.53
2022-11-30T11:31:35.715Z,35.48
2022-11-30T11:34:04.261Z,36.06
2022-11-30T11:36:33.419Z,36.11
2022-11-30T11:39:01.362Z,36.19
2022-11-30T11:41:33.318Z,35.55
2022-11-30T11:44:03.690Z,36.50
2022-11-30T11:46:34.185Z,35.66
2022-11-30T11:49:04.726Z,35.72
2022-11-30T11:51:34.347Z,35.40
2022-11-30T11:54:14.019Z,35.90
2022-11-30T11:56:42.966Z,35.90
2022-11-30T11:59:19.629Z,35.87
2022-11-30T12:01:59.908Z,35.82
2022-11-30T12:04:48.549Z,36.03
2022-11-30T12:07:32.253Z,35.30
2022-11-30T12:13:17.904Z,36.06
2022-11-30T12:15:58.902Z,35.37
2022-11-30T12:18:38.506Z,35.53
2022-11-30T12:21:14.232Z,36.12
2022-11-30T12:24:05.666Z,35.69
2022-11-30T12:26:40.905Z,36.02
2022-11-30T12:29:23.682Z,36.13
2022-11-30T12:32:03.966Z,36.19
2022-11-30T12:34:57.573Z,35.38
2022-11-30T12:37:45.948Z,35.80
2022-11-30T12:40:29.786Z,36.13
2022-11-30T12:43:13.028Z,35.38
2022-11-30T12:45:44.568Z,35.74
2022-11-30T12:48:28.585Z,35.76
2022-11-30T12:51:15.424Z,36.72
2022-11-30T12:53:53.889Z,37.18
2022-11-30T12:56:45.737Z,36.81
2022-11-30T12:59:27.587Z,37.83
2022-11-30T13:02:29.768Z,36.80
2022-11-30T13:05:04.500Z,36.96
2022-11-30T13:07:38.357Z,36.19
2022-11-30T13:10:21.466Z,37.84
2022-11-30T13:12:53.625Z,36.34
2022-11-30T13:15:24.051Z,35.93
2022-11-30T13:17:55.536Z,36.21
2022-11-30T13:20:31.806Z,36.17
2022-11-30T13:23:06.118Z,36.21
2022-11-30T13:26:07.343Z,36.97
2022-11-30T13:28:51.423Z,36.72
2022-11-30T13:31:27.668Z,37.21
2022-11-30T13:34:00.309Z,37.06
2022-11-30T13:36:41.148Z,36.90
2022-11-30T13:39:30.446Z,37.59
2022-11-30T13:42:30.446Z,37.33
2022-11-30T13:44:59.329Z,37.03
2022-11-30T13:47:33.005Z,37.38
2022-11-30T13:50:08.507Z,37.45
2022-11-30T13:53:18.905Z,37.29
2022-11-30T13:55:53.309Z,37.81
2022-11-30T13:58:20.787Z,37.63
2022-11-30T14:01:18.424Z,38.00
2022-11-30T14:04:05.750Z,37.95
2022-11-30T14:06:50.648Z,38.20
2022-11-30T14:09:57.269Z,37.83
2022-11-30T14:12:56.798Z,38.30
2022-11-30T14:15:37.381Z,38.50
2022-11-30T14:18:20.040Z,37.90
2022-11-30T14:20:55.471Z,38.19
2022-11-30T14:23:30.907Z,39.45
2022-11-30T14:26:10.467Z,38.22
2022-11-30T14:28:44.369Z,38.32
2022-11-30T14:31:21.366Z,39.46
2022-11-30T14:33:55.707Z,38.82
2022-11-30T14:36:28.647Z,39.02
2022-11-30T14:38:57.230Z,39.23
2022-11-30T14:41:28.265Z,38.84
2022-11-30T14:44:14.369Z,38.44
2022-11-30T14:46:42.261Z,38.72
2022-11-30T14:49:15.825Z,38.87
2022-11-30T14:51:47.635Z,38.41
2022-11-30T14:54:39.685Z,38.93
2022-11-30T14:57:19.607Z,38.56
2022-11-30T14:59:52.764Z,38.29
2022-11-30T15:02:26.862Z,39.29
2022-11-30T15:04:55.994Z,38.92
2022-11-30T15:07:25.443Z,38.56
2022-11-30T15:10:02.672Z,38.65
2022-11-30T15:12:30.785Z,38.26
2022-11-30T15:15:15.359Z,39.31
2022-11-30T15:18:10.246Z,39.45
2022-11-30T15:20:42.944Z,38.94
2022-11-30T15:23:14.208Z,39.51
2022-11-30T15:25:47.206Z,39.17
2022-11-30T15:28:21.606Z,39.72
2022-11-30T15:30:56.305Z,39.53
2022-11-30T15:33:29.665Z,39.57
2022-11-30T15:36:19.158Z,39.17
2022-11-30T15:38:53.384Z,39.16
2022-11-30T15:41:24.787Z,39.62
2022-11-30T15:43:55.866Z,39.23
2022-11-30T15:46:32.516Z,39.66
2022-11-30T15:49:14.905Z,39.53
2022-11-30T15:51:58.544Z,39.74
2022-11-30T15:54:48.246Z,39.02
2022-11-30T15:57:17.527Z,40.08
2022-11-30T16:00:04.486Z,39.79
2022-11-30T16:02:34.384Z,39.72
2022-11-30T16:05:21.588Z,40.19
2022-11-30T16:07:52.357Z,40.18
2022-11-30T16:10:25.950Z,40.33
2022-11-30T16:12:56.306Z,40.74
2022-11-30T16:15:26.364Z,40.14
2022-11-30T16:17:56.966Z,40.25
2022-11-30T16:20:24.708Z,40.79
2022-11-30T16:22:53.806Z,40.75
2022-11-30T16:25:23.726Z,40.17
2022-11-30T16:27:52.247Z,40.89
2022-11-30T16:30:25.505Z,40.38
2022-11-30T16:32:54.546Z,40.57
2022-11-30T16:35:25.245Z,39.96
2022-11-30T16:37:53.508Z,40.24
2022-11-30T16:40:20.945Z,41.03
2022-11-30T16:42:50.905Z,40.57
2022-11-30T16:45:23.482Z,40.36
2022-11-30T16:47:51.143Z,40.23
2022-11-30T16:50:21.445Z,40.33
2022-11-30T16:52:48.912Z,40.37
2022-11-30T16:55:19.547Z,40.00
2022-11-30T16:57:47.444Z,40.50
2022-11-30T17:00:17.604Z,40.10
2022-11-30T17:02:53.684Z,41.18
2022-11-30T17:05:20.985Z,40.54
2022-11-30T17:07:48.520Z,40.75
2022-11-30T17:10:15.905Z,40.69
2022-11-30T17:12:43.045Z,40.83
2022-11-30T17:15:17.084Z,41.32
2022-11-30T17:17:45.687Z,41.09
2022-11-30T17:20:14.886Z,40.42
2022-11-30T17:22:43.466Z,40.36
2022-11-30T17:25:16.395Z,40.75
2022-11-30T17:27:44.708Z,40.90
2022-11-30T17:30:14.269Z,40.45
2022-11-30T17:32:41.330Z,40.47
2022-11-30T17:35:11.365Z,41.22
2022-11-30T17:37:38.506Z,40.66
2022-11-30T17:40:08.324Z,41.90
2022-11-30T17:42:35.909Z,41.66
2022-11-30T17:45:04.004Z,41.46
2022-11-30T17:47:31.144Z,41.38
2022-11-30T17:49:58.608Z,52.49
2022-11-30T17:52:27.187Z,39.84
2022-11-30T17:54:54.356Z,36.03
2022-11-30T17:57:21.865Z,30.55
2022-11-30T17:59:50.778Z,32.22
2022-11-30T18:02:18.248Z,33.26
2022-11-30T18:04:45.789Z,34.29
2022-11-30T18:07:13.168Z,35.10
2022-11-30T18:09:43.234Z,36.23
2022-11-30T18:12:10.890Z,37.36
2022-11-30T18:14:38.531Z,37.67
2022-11-30T18:17:06.899Z,37.97
2022-11-30T18:19:34.227Z,38.41
2022-11-30T18:22:01.385Z,38.89
2022-11-30T18:24:28.796Z,39.27
2022-11-30T18:26:57.354Z,39.32
2022-11-30T18:29:25.135Z,39.72
2022-11-30T18:31:52.474Z,39.96
2022-11-30T18:34:19.658Z,39.77
2022-11-30T18:36:46.955Z,39.87
2022-11-30T18:39:14.398Z,40.07
2022-11-30T18:41:41.503Z,39.75
2022-11-30T18:44:11.289Z,39.73
2022-11-30T18:46:40.360Z,39.50
2022-11-30T18:49:08.556Z,40.30
2022-11-30T18:51:35.905Z,39.74
2022-11-30T18:54:13.120Z,40.61
2022-11-30T18:56:40.734Z,40.04
2022-11-30T18:59:13.518Z,39.83
2022-11-30T19:01:41.555Z,39.71
2022-11-30T19:04:10.858Z,39.80
2022-11-30T19:07:03.808Z,39.54
2022-11-30T19:09:31.036Z,40.67
2022-11-30T19:12:01.004Z,39.57
2022-11-30T19:14:30.754Z,39.96
2022-11-30T19:17:01.224Z,39.81
2022-11-30T19:19:28.479Z,39.99
2022-11-30T19:21:55.853Z,39.82
2022-11-30T19:24:23.974Z,40.08
2022-11-30T19:26:51.135Z,40.26
2022-11-30T19:29:18.693Z,39.75
2022-11-30T19:31:47.294Z,40.32
2022-11-30T19:34:14.414Z,40.45
2022-11-30T19:36:41.658Z,40.22
2022-11-30T19:39:11.007Z,40.58
2022-11-30T19:41:38.546Z,39.85
2022-11-30T19:44:08.866Z,40.00
2022-11-30T19:46:36.439Z,39.76
2022-11-30T19:49:05.755Z,40.49
2022-11-30T19:51:32.996Z,39.71
2022-11-30T19:54:01.017Z,40.55
2022-11-30T19:56:30.617Z,40.27
2022-11-30T19:59:05.617Z,39.91
2022-11-30T20:01:34.928Z,39.81
2022-11-30T20:04:02.735Z,40.86
2022-11-30T20:06:34.194Z,40.59
2022-11-30T20:09:01.758Z,39.74
2022-11-30T20:11:28.934Z,40.80
2022-11-30T20:13:56.214Z,39.99
2022-11-30T20:16:25.927Z,40.47
2022-11-30T20:18:56.401Z,41.28
2022-11-30T20:21:27.214Z,41.12
2022-11-30T20:23:59.557Z,39.96
2022-11-30T20:26:29.677Z,40.26
2022-11-30T20:28:58.518Z,40.69
2022-11-30T20:31:30.134Z,40.85
2022-11-30T20:33:59.637Z,40.81
2022-11-30T20:36:27.136Z,40.79
2022-11-30T20:38:55.795Z,40.93
2022-11-30T20:41:24.934Z,41.12
2022-11-30T20:43:54.058Z,40.93
2022-11-30T20:46:25.330Z,40.57
2022-11-30T20:48:53.384Z,40.45
2022-11-30T20:51:32.543Z,40.77
2022-11-30T20:54:04.166Z,41.03
2022-11-30T20:56:32.353Z,40.71
2022-11-30T20:59:02.018Z,40.97
2022-11-30T21:01:30.163Z,40.19
2022-11-30T21:03:57.397Z,41.11
2022-11-30T21:06:25.213Z,40.84
2022-11-30T21:08:52.478Z,40.71
2022-11-30T21:11:21.956Z,40.79
2022-11-30T21:13:51.114Z,40.89
2022-11-30T21:16:26.854Z,41.16
2022-11-30T21:18:55.099Z,41.45
2022-11-30T21:21:25.053Z,41.51
2022-11-30T21:23:52.996Z,41.49
2022-11-30T21:26:24.276Z,41.93
2022-11-30T21:28:53.376Z,42.43
2022-11-30T21:31:21.854Z,42.32
2022-11-30T21:33:53.226Z,42.87
2022-11-30T21:36:22.436Z,42.92
2022-11-30T21:38:58.173Z,42.50
2022-11-30T21:41:31.618Z,42.71
2022-11-30T21:44:03.794Z,42.58
2022-11-30T21:46:36.201Z,42.64
2022-11-30T21:49:05.577Z,43.11
2022-11-30T21:51:39.713Z,42.73
2022-11-30T21:54:10.414Z,42.74
2022-11-30T21:56:41.877Z,42.64
2022-11-30T21:59:11.394Z,43.38
2022-11-30T22:01:40.515Z,43.30
2022-11-30T22:04:09.872Z,43.71
2022-11-30T22:06:38.934Z,43.74
2022-11-30T22:09:08.554Z,43.75
2022-11-30T22:11:37.695Z,44.19
2022-11-30T22:14:07.416Z,43.70
2022-11-30T22:16:36.424Z,43.72
2022-11-30T22:19:05.996Z,44.08
2022-11-30T22:21:34.696Z,44.05
2022-11-30T22:24:04.359Z,43.71
2022-11-30T22:26:33.994Z,44.15
2022-11-30T22:29:04.236Z,44.12
2022-11-30T22:31:35.752Z,43.72
2022-11-30T22:34:04.420Z,43.48
2022-11-30T22:36:33.976Z,44.27
2022-11-30T22:39:04.295Z,44.13
2022-11-30T22:41:32.013Z,44.09
2022-11-30T22:43:59.956Z,43.60
2022-11-30T22:46:30.293Z,43.66
2022-11-30T22:49:01.778Z,44.14
2022-11-30T22:51:33.230Z,43.49
2022-11-30T22:54:01.514Z,43.86
2022-11-30T22:56:30.724Z,43.58
2022-11-30T22:58:59.495Z,44.12
2022-11-30T23:01:28.919Z,43.20
2022-11-30T23:04:01.128Z,42.86
2022-11-30T23:06:30.055Z,43.07
2022-11-30T23:08:57.116Z,42.76
2022-11-30T23:11:25.975Z,43.35
2022-11-30T23:13:53.282Z,43.10
2022-11-30T23:16:21.297Z,42.68
2022-11-30T23:18:50.875Z,42.58
2022-11-30T23:21:21.014Z,42.65
2022-11-30T23:23:50.296Z,42.55
2022-11-30T23:26:20.695Z,42.25
2022-11-30T23:28:50.139Z,42.50
2022-11-30T23:31:32.927Z,42.87
2022-11-30T23:34:04.396Z,42.31
2022-11-30T23:36:31.956Z,42.50
2022-11-30T23:39:04.077Z,41.93
2022-11-30T23:41:31.386Z,41.99
2022-11-30T23:43:58.914Z,41.86
2022-11-30T23:46:26.317Z,41.76
2022-11-30T23:48:53.722Z,42.14
2022-11-30T23:51:20.876Z,42.19
2022-11-30T23:53:47.996Z,42.47
2022-11-30T23:56:18.194Z,42.25
2022-11-30T23:58:45.777Z,41.89
